KLAL/LAL METAR and TAF weather

Enter ICAO airport designator
Station Type Date Time Source
KLAL METAR 2023/02/05 22:50 UTC NOAA

KLAL 052250Z 00000KT 10SM SCT038 22/14 A3011


Station Type Date Time Source
KLAL Decoded METAR 2023/02/05 22:50 UTC NOAA

Lakeland Regional, FL, United States (KLAL) 27-59N 082-01W
Feb 05, 2023 - 05:50 PM EST / 2023.02.05 2250 UTC
Wind: Calm:0
Visibility: 10 mile(s):0
Sky conditions: partly cloudy
Temperature: 71 F (22 C)
Dew Point: 57 F (14 C)
Relative Humidity: 60%
Pressure (altimeter): 30.11 in. Hg (1019 hPa)
ob: KLAL 052250Z 00000KT 10SM SCT038 22/14 A3011
cycle: 23

Station Type Date Time Source
KLAL TAF 2023/02/05 18:24 UTC NOAA

TAF KLAL 051722Z 0518/0618 07009KT P6SM BKN060
TEMPO 0518/0519 BKN015
FM052100 01004KT P6SM BKN250
FM061000 36005KT 4SM BR BKN005
FM061400 03007KT P6SM SCT250

Example: see airport list